sensor_id;sensor_type;location;lat;lon;timestamp;P1;durP1;ratioP1;P2;durP2;ratioP2
75342;SDS011;63936;51.006;13.764;2023-09-07T00:00:02;12;;;7;;
75342;SDS011;63936;51.006;13.764;2023-09-07T00:02:01;9;;;7;;
75342;SDS011;63936;51.006;13.764;2023-09-07T00:04:02;11;;;7;;
75342;SDS011;63936;51.006;13.764;2023-09-07T00:06:02;9;;;6;;
75342;SDS011;63936;51.006;13.764;2023-09-07T00:08:02;9;;;6;;
75342;SDS011;63936;51.006;13.764;2023-09-07T00:10:03;8;;;5;;
75342;SDS011;63936;51.006;13.764;2023-09-07T00:12:01;8;;;5;;
75342;SDS011;63936;51.006;13.764;2023-09-07T00:14:01;10;;;6;;
75342;SDS011;63936;51.006;13.764;2023-09-07T00:16:02;10;;;6;;
75342;SDS011;63936;51.006;13.764;2023-09-07T00:18:02;10;;;6;;
75342;SDS011;63936;51.006;13.764;2023-09-07T00:20:03;10;;;6;;
75342;SDS011;63936;51.006;13.764;2023-09-07T00:22:02;10;;;5;;
75342;SDS011;63936;51.006;13.764;2023-09-07T00:24:02;9;;;5;;
75342;SDS011;63936;51.006;13.764;2023-09-07T00:26:04;9;;;6;;
75342;SDS011;63936;51.006;13.764;2023-09-07T00:28:02;10;;;6;;
75342;SDS011;63936;51.006;13.764;2023-09-07T00:30:05;9;;;6;;
75342;SDS011;63936;51.006;13.764;2023-09-07T00:32:02;8;;;6;;
75342;SDS011;63936;51.006;13.764;2023-09-07T00:34:02;9;;;6;;
75342;SDS011;63936;51.006;13.764;2023-09-07T00:36:02;9;;;7;;
75342;SDS011;63936;51.006;13.764;2023-09-07T00:38:02;9;;;7;;
75342;SDS011;63936;51.006;13.764;2023-09-07T00:40:02;10;;;7;;
75342;SDS011;63936;51.006;13.764;2023-09-07T00:42:01;9;;;6;;
75342;SDS011;63936;51.006;13.764;2023-09-07T00:44:01;9;;;6;;
75342;SDS011;63936;51.006;13.764;2023-09-07T00:46:01;10;;;6;;
75342;SDS011;63936;51.006;13.764;2023-09-07T00:48:01;9;;;6;;
75342;SDS011;63936;51.006;13.764;2023-09-07T00:50:02;10;;;7;;
75342;SDS011;63936;51.006;13.764;2023-09-07T00:52:02;10;;;7;;
75342;SDS011;63936;51.006;13.764;2023-09-07T00:54:02;9;;;6;;
75342;SDS011;63936;51.006;13.764;2023-09-07T00:56:01;9;;;6;;
75342;SDS011;63936;51.006;13.764;2023-09-07T00:58:01;9;;;6;;
75342;SDS011;63936;51.006;13.764;2023-09-07T01:00:02;9;;;6;;
75342;SDS011;63936;51.006;13.764;2023-09-07T01:02:01;8;;;6;;
75342;SDS011;63936;51.006;13.764;2023-09-07T01:04:01;9;;;6;;
75342;SDS011;63936;51.006;13.764;2023-09-07T01:06:02;10;;;6;;
75342;SDS011;63936;51.006;13.764;2023-09-07T01:08:03;10;;;6;;
75342;SDS011;63936;51.006;13.764;2023-09-07T01:10:02;9;;;6;;
75342;SDS011;63936;51.006;13.764;2023-09-07T01:12:02;9;;;6;;
75342;SDS011;63936;51.006;13.764;2023-09-07T01:14:02;8;;;6;;
75342;SDS011;63936;51.006;13.764;2023-09-07T01:16:02;9;;;6;;
75342;SDS011;63936;51.006;13.764;2023-09-07T01:18:02;9;;;6;;
75342;SDS011;63936;51.006;13.764;2023-09-07T01:20:03;8;;;6;;
75342;SDS011;63936;51.006;13.764;2023-09-07T01:22:01;9;;;6;;
75342;SDS011;63936;51.006;13.764;2023-09-07T01:24:01;10;;;6;;
75342;SDS011;63936;51.006;13.764;2023-09-07T01:26:01;9;;;6;;
75342;SDS011;63936;51.006;13.764;2023-09-07T01:28:01;9;;;6;;
75342;SDS011;63936;51.006;13.764;2023-09-07T01:30:02;9;;;6;;
75342;SDS011;63936;51.006;13.764;2023-09-07T01:32:02;9;;;7;;
75342;SDS011;63936;51.006;13.764;2023-09-07T01:34:02;9;;;6;;
75342;SDS011;63936;51.006;13.764;2023-09-07T01:36:01;10;;;6;;
75342;SDS011;63936;51.006;13.764;2023-09-07T01:38:01;9;;;6;;
75342;SDS011;63936;51.006;13.764;2023-09-07T01:40:02;9;;;7;;
75342;SDS011;63936;51.006;13.764;2023-09-07T01:42:02;9;;;7;;
75342;SDS011;63936;51.006;13.764;2023-09-07T01:44:02;10;;;7;;
75342;SDS011;63936;51.006;13.764;2023-09-07T01:46:01;9;;;6;;
75342;SDS011;63936;51.006;13.764;2023-09-07T01:48:01;9;;;6;;
75342;SDS011;63936;51.006;13.764;2023-09-07T01:50:02;10;;;6;;
75342;SDS011;63936;51.006;13.764;2023-09-07T01:52:01;10;;;6;;
75342;SDS011;63936;51.006;13.764;2023-09-07T01:54:01;8;;;6;;
75342;SDS011;63936;51.006;13.764;2023-09-07T01:56:02;9;;;6;;
75342;SDS011;63936;51.006;13.764;2023-09-07T01:58:02;8;;;6;;
75342;SDS011;63936;51.006;13.764;2023-09-07T02:00:02;9;;;6;;
75342;SDS011;63936;51.006;13.764;2023-09-07T02:02:01;10;;;6;;
75342;SDS011;63936;51.006;13.764;2023-09-07T02:04:01;10;;;6;;
75342;SDS011;63936;51.006;13.764;2023-09-07T02:06:01;8;;;6;;
75342;SDS011;63936;51.006;13.764;2023-09-07T02:08:01;9;;;6;;
75342;SDS011;63936;51.006;13.764;2023-09-07T02:10:02;9;;;6;;
75342;SDS011;63936;51.006;13.764;2023-09-07T02:12:01;8;;;6;;
75342;SDS011;63936;51.006;13.764;2023-09-07T02:14:01;9;;;6;;
75342;SDS011;63936;51.006;13.764;2023-09-07T02:16:03;9;;;6;;
75342;SDS011;63936;51.006;13.764;2023-09-07T02:18:02;9;;;6;;
75342;SDS011;63936;51.006;13.764;2023-09-07T02:20:02;9;;;6;;
75342;SDS011;63936;51.006;13.764;2023-09-07T02:22:01;10;;;7;;
75342;SDS011;63936;51.006;13.764;2023-09-07T02:24:01;9;;;7;;
75342;SDS011;63936;51.006;13.764;2023-09-07T02:26:02;12;;;7;;
75342;SDS011;63936;51.006;13.764;2023-09-07T02:28:02;11;;;7;;
75342;SDS011;63936;51.006;13.764;2023-09-07T02:30:02;9;;;7;;
75342;SDS011;63936;51.006;13.764;2023-09-07T02:32:01;9;;;6;;
75342;SDS011;63936;51.006;13.764;2023-09-07T02:34:01;9;;;6;;
75342;SDS011;63936;51.006;13.764;2023-09-07T02:36:01;8;;;6;;
75342;SDS011;63936;51.006;13.764;2023-09-07T02:38:01;8;;;7;;
75342;SDS011;63936;51.006;13.764;2023-09-07T02:40:02;8;;;7;;
75342;SDS011;63936;51.006;13.764;2023-09-07T02:42:01;9;;;6;;
75342;SDS011;63936;51.006;13.764;2023-09-07T02:44:01;9;;;6;;
75342;SDS011;63936;51.006;13.764;2023-09-07T02:46:01;10;;;6;;
75342;SDS011;63936;51.006;13.764;2023-09-07T02:48:01;10;;;6;;
75342;SDS011;63936;51.006;13.764;2023-09-07T02:50:02;9;;;6;;
75342;SDS011;63936;51.006;13.764;2023-09-07T02:52:01;9;;;6;;
75342;SDS011;63936;51.006;13.764;2023-09-07T02:54:02;8;;;6;;
75342;SDS011;63936;51.006;13.764;2023-09-07T02:56:01;8;;;6;;
75342;SDS011;63936;51.006;13.764;2023-09-07T02:58:02;10;;;6;;
75342;SDS011;63936;51.006;13.764;2023-09-07T03:00:03;10;;;6;;
75342;SDS011;63936;51.006;13.764;2023-09-07T03:02:01;9;;;6;;
75342;SDS011;63936;51.006;13.764;2023-09-07T03:04:01;9;;;7;;
75342;SDS011;63936;51.006;13.764;2023-09-07T03:06:07;9;;;6;;
75342;SDS011;63936;51.006;13.764;2023-09-07T03:08:02;8;;;6;;
75342;SDS011;63936;51.006;13.764;2023-09-07T03:10:02;8;;;6;;
75342;SDS011;63936;51.006;13.764;2023-09-07T03:12:01;11;;;7;;
75342;SDS011;63936;51.006;13.764;2023-09-07T03:14:01;9;;;6;;
75342;SDS011;63936;51.006;13.764;2023-09-07T03:16:02;11;;;7;;
75342;SDS011;63936;51.006;13.764;2023-09-07T03:18:01;9;;;6;;
75342;SDS011;63936;51.006;13.764;2023-09-07T03:20:02;10;;;6;;
75342;SDS011;63936;51.006;13.764;2023-09-07T03:22:02;9;;;6;;
75342;SDS011;63936;51.006;13.764;2023-09-07T03:24:02;9;;;6;;
75342;SDS011;63936;51.006;13.764;2023-09-07T03:26:02;9;;;6;;
75342;SDS011;63936;51.006;13.764;2023-09-07T03:28:02;10;;;6;;
75342;SDS011;63936;51.006;13.764;2023-09-07T03:30:02;10;;;6;;
75342;SDS011;63936;51.006;13.764;2023-09-07T03:32:01;9;;;6;;
75342;SDS011;63936;51.006;13.764;2023-09-07T03:34:01;9;;;6;;
75342;SDS011;63936;51.006;13.764;2023-09-07T03:36:01;10;;;6;;
75342;SDS011;63936;51.006;13.764;2023-09-07T03:38:01;9;;;6;;
75342;SDS011;63936;51.006;13.764;2023-09-07T03:40:03;9;;;6;;
75342;SDS011;63936;51.006;13.764;2023-09-07T03:42:01;8;;;6;;
75342;SDS011;63936;51.006;13.764;2023-09-07T03:44:01;8;;;6;;
75342;SDS011;63936;51.006;13.764;2023-09-07T03:46:01;10;;;6;;
75342;SDS011;63936;51.006;13.764;2023-09-07T03:48:01;10;;;6;;
75342;SDS011;63936;51.006;13.764;2023-09-07T03:50:02;11;;;7;;
75342;SDS011;63936;51.006;13.764;2023-09-07T03:52:01;11;;;7;;
75342;SDS011;63936;51.006;13.764;2023-09-07T03:54:02;10;;;6;;
75342;SDS011;63936;51.006;13.764;2023-09-07T03:56:02;10;;;7;;
75342;SDS011;63936;51.006;13.764;2023-09-07T03:58:02;9;;;7;;
75342;SDS011;63936;51.006;13.764;2023-09-07T04:00:03;9;;;6;;
75342;SDS011;63936;51.006;13.764;2023-09-07T04:02:02;11;;;6;;
75342;SDS011;63936;51.006;13.764;2023-09-07T04:04:04;10;;;6;;
75342;SDS011;63936;51.006;13.764;2023-09-07T04:06:03;10;;;7;;
75342;SDS011;63936;51.006;13.764;2023-09-07T04:08:02;9;;;6;;
75342;SDS011;63936;51.006;13.764;2023-09-07T04:10:04;9;;;6;;
75342;SDS011;63936;51.006;13.764;2023-09-07T04:12:01;9;;;6;;
75342;SDS011;63936;51.006;13.764;2023-09-07T04:14:02;9;;;6;;
75342;SDS011;63936;51.006;13.764;2023-09-07T04:16:02;10;;;6;;
75342;SDS011;63936;51.006;13.764;2023-09-07T04:18:02;11;;;6;;
75342;SDS011;63936;51.006;13.764;2023-09-07T04:20:02;9;;;6;;
75342;SDS011;63936;51.006;13.764;2023-09-07T04:22:01;9;;;6;;
75342;SDS011;63936;51.006;13.764;2023-09-07T04:24:02;9;;;6;;
75342;SDS011;63936;51.006;13.764;2023-09-07T04:26:03;10;;;6;;
75342;SDS011;63936;51.006;13.764;2023-09-07T04:28:02;9;;;6;;
75342;SDS011;63936;51.006;13.764;2023-09-07T04:30:03;9;;;6;;
75342;SDS011;63936;51.006;13.764;2023-09-07T04:32:01;10;;;6;;
75342;SDS011;63936;51.006;13.764;2023-09-07T04:34:02;10;;;6;;
75342;SDS011;63936;51.006;13.764;2023-09-07T04:36:09;9;;;6;;
75342;SDS011;63936;51.006;13.764;2023-09-07T04:38:01;10;;;6;;
75342;SDS011;63936;51.006;13.764;2023-09-07T04:40:05;9;;;6;;
75342;SDS011;63936;51.006;13.764;2023-09-07T04:42:02;9;;;6;;
75342;SDS011;63936;51.006;13.764;2023-09-07T04:44:02;9;;;6;;
75342;SDS011;63936;51.006;13.764;2023-09-07T04:46:02;8;;;6;;
75342;SDS011;63936;51.006;13.764;2023-09-07T04:48:02;8;;;6;;
75342;SDS011;63936;51.006;13.764;2023-09-07T04:50:02;9;;;6;;
75342;SDS011;63936;51.006;13.764;2023-09-07T04:52:02;8;;;6;;
75342;SDS011;63936;51.006;13.764;2023-09-07T04:54:02;9;;;6;;
75342;SDS011;63936;51.006;13.764;2023-09-07T04:56:02;13;;;6;;
75342;SDS011;63936;51.006;13.764;2023-09-07T04:58:02;13;;;5;;
75342;SDS011;63936;51.006;13.764;2023-09-07T05:00:02;9;;;5;;
75342;SDS011;63936;51.006;13.764;2023-09-07T05:02:02;8;;;5;;
75342;SDS011;63936;51.006;13.764;2023-09-07T05:04:02;9;;;6;;
75342;SDS011;63936;51.006;13.764;2023-09-07T05:06:01;9;;;6;;
75342;SDS011;63936;51.006;13.764;2023-09-07T05:08:01;9;;;6;;
75342;SDS011;63936;51.006;13.764;2023-09-07T05:10:02;11;;;6;;
75342;SDS011;63936;51.006;13.764;2023-09-07T05:12:01;9;;;6;;
75342;SDS011;63936;51.006;13.764;2023-09-07T05:14:01;9;;;5;;
75342;SDS011;63936;51.006;13.764;2023-09-07T05:16:02;9;;;6;;
75342;SDS011;63936;51.006;13.764;2023-09-07T05:18:01;9;;;5;;
75342;SDS011;63936;51.006;13.764;2023-09-07T05:20:01;9;;;5;;
75342;SDS011;63936;51.006;13.764;2023-09-07T05:22:01;10;;;6;;
75342;SDS011;63936;51.006;13.764;2023-09-07T05:24:02;9;;;6;;
75342;SDS011;63936;51.006;13.764;2023-09-07T05:26:01;8;;;5;;
75342;SDS011;63936;51.006;13.764;2023-09-07T05:28:01;8;;;5;;
75342;SDS011;63936;51.006;13.764;2023-09-07T05:30:02;10;;;6;;
75342;SDS011;63936;51.006;13.764;2023-09-07T05:32:01;12;;;5;;
75342;SDS011;63936;51.006;13.764;2023-09-07T05:34:01;12;;;5;;
75342;SDS011;63936;51.006;13.764;2023-09-07T05:36:02;9;;;5;;
75342;SDS011;63936;51.006;13.764;2023-09-07T05:38:02;11;;;5;;
75342;SDS011;63936;51.006;13.764;2023-09-07T05:40:03;12;;;5;;
75342;SDS011;63936;51.006;13.764;2023-09-07T05:42:01;10;;;5;;
75342;SDS011;63936;51.006;13.764;2023-09-07T05:44:01;10;;;5;;
75342;SDS011;63936;51.006;13.764;2023-09-07T05:46:02;14;;;6;;
75342;SDS011;63936;51.006;13.764;2023-09-07T05:48:02;11;;;5;;
75342;SDS011;63936;51.006;13.764;2023-09-07T05:50:06;9;;;5;;
75342;SDS011;63936;51.006;13.764;2023-09-07T05:52:02;11;;;5;;
75342;SDS011;63936;51.006;13.764;2023-09-07T05:54:02;13;;;5;;
75342;SDS011;63936;51.006;13.764;2023-09-07T05:56:02;10;;;5;;
75342;SDS011;63936;51.006;13.764;2023-09-07T05:58:03;11;;;5;;
75342;SDS011;63936;51.006;13.764;2023-09-07T06:00:03;9;;;4;;
75342;SDS011;63936;51.006;13.764;2023-09-07T06:02:01;9;;;5;;
75342;SDS011;63936;51.006;13.764;2023-09-07T06:04:01;12;;;5;;
75342;SDS011;63936;51.006;13.764;2023-09-07T06:06:02;10;;;5;;
75342;SDS011;63936;51.006;13.764;2023-09-07T06:08:02;9;;;5;;
75342;SDS011;63936;51.006;13.764;2023-09-07T06:10:02;9;;;5;;
75342;SDS011;63936;51.006;13.764;2023-09-07T06:12:01;10;;;5;;
75342;SDS011;63936;51.006;13.764;2023-09-07T06:14:01;13;;;5;;
75342;SDS011;63936;51.006;13.764;2023-09-07T06:16:02;10;;;5;;
75342;SDS011;63936;51.006;13.764;2023-09-07T06:18:01;11;;;4;;
75342;SDS011;63936;51.006;13.764;2023-09-07T06:20:03;9;;;4;;
75342;SDS011;63936;51.006;13.764;2023-09-07T06:22:01;8;;;4;;
75342;SDS011;63936;51.006;13.764;2023-09-07T06:24:01;9;;;4;;
75342;SDS011;63936;51.006;13.764;2023-09-07T06:26:01;9;;;4;;
75342;SDS011;63936;51.006;13.764;2023-09-07T06:28:01;11;;;4;;
75342;SDS011;63936;51.006;13.764;2023-09-07T06:30:03;12;;;4;;
75342;SDS011;63936;51.006;13.764;2023-09-07T06:32:02;8;;;4;;
75342;SDS011;63936;51.006;13.764;2023-09-07T06:34:02;8;;;4;;
75342;SDS011;63936;51.006;13.764;2023-09-07T06:36:01;10;;;4;;
75342;SDS011;63936;51.006;13.764;2023-09-07T06:38:01;9;;;4;;
75342;SDS011;63936;51.006;13.764;2023-09-07T06:40:02;7;;;4;;
75342;SDS011;63936;51.006;13.764;2023-09-07T06:42:02;7;;;4;;
75342;SDS011;63936;51.006;13.764;2023-09-07T06:44:02;9;;;4;;
75342;SDS011;63936;51.006;13.764;2023-09-07T06:46:02;9;;;4;;
75342;SDS011;63936;51.006;13.764;2023-09-07T06:48:01;8;;;4;;
75342;SDS011;63936;51.006;13.764;2023-09-07T06:50:02;8;;;4;;
75342;SDS011;63936;51.006;13.764;2023-09-07T06:52:02;7;;;4;;
75342;SDS011;63936;51.006;13.764;2023-09-07T06:54:02;7;;;4;;
75342;SDS011;63936;51.006;13.764;2023-09-07T06:56:02;7;;;4;;
75342;SDS011;63936;51.006;13.764;2023-09-07T06:58:02;8;;;4;;
75342;SDS011;63936;51.006;13.764;2023-09-07T07:00:02;8;;;4;;
75342;SDS011;63936;51.006;13.764;2023-09-07T07:02:01;7;;;4;;
75342;SDS011;63936;51.006;13.764;2023-09-07T07:04:01;7;;;4;;
75342;SDS011;63936;51.006;13.764;2023-09-07T07:06:01;7;;;4;;
75342;SDS011;63936;51.006;13.764;2023-09-07T07:08:01;8;;;4;;
75342;SDS011;63936;51.006;13.764;2023-09-07T07:10:02;7;;;4;;
75342;SDS011;63936;51.006;13.764;2023-09-07T07:12:02;7;;;4;;
75342;SDS011;63936;51.006;13.764;2023-09-07T07:14:02;8;;;4;;
75342;SDS011;63936;51.006;13.764;2023-09-07T07:16:02;7;;;3;;
75342;SDS011;63936;51.006;13.764;2023-09-07T07:18:01;8;;;4;;
75342;SDS011;63936;51.006;13.764;2023-09-07T07:20:01;8;;;4;;
75342;SDS011;63936;51.006;13.764;2023-09-07T07:22:01;7;;;4;;
75342;SDS011;63936;51.006;13.764;2023-09-07T07:24:01;8;;;4;;
75342;SDS011;63936;51.006;13.764;2023-09-07T07:26:01;9;;;4;;
75342;SDS011;63936;51.006;13.764;2023-09-07T07:28:02;8;;;4;;
75342;SDS011;63936;51.006;13.764;2023-09-07T07:30:02;7;;;4;;
75342;SDS011;63936;51.006;13.764;2023-09-07T07:32:02;9;;;4;;
75342;SDS011;63936;51.006;13.764;2023-09-07T07:34:02;10;;;4;;
75342;SDS011;63936;51.006;13.764;2023-09-07T07:36:02;8;;;4;;
75342;SDS011;63936;51.006;13.764;2023-09-07T07:38:02;8;;;4;;
75342;SDS011;63936;51.006;13.764;2023-09-07T07:40:02;8;;;4;;
75342;SDS011;63936;51.006;13.764;2023-09-07T07:42:01;7;;;4;;
75342;SDS011;63936;51.006;13.764;2023-09-07T07:44:01;8;;;4;;
75342;SDS011;63936;51.006;13.764;2023-09-07T07:46:02;8;;;4;;
75342;SDS011;63936;51.006;13.764;2023-09-07T07:48:02;10;;;4;;
75342;SDS011;63936;51.006;13.764;2023-09-07T07:50:02;9;;;4;;
75342;SDS011;63936;51.006;13.764;2023-09-07T07:52:02;8;;;3;;
75342;SDS011;63936;51.006;13.764;2023-09-07T07:54:01;10;;;4;;
75342;SDS011;63936;51.006;13.764;2023-09-07T07:56:01;10;;;4;;
75342;SDS011;63936;51.006;13.764;2023-09-07T07:58:01;8;;;4;;
75342;SDS011;63936;51.006;13.764;2023-09-07T08:00:02;8;;;4;;
75342;SDS011;63936;51.006;13.764;2023-09-07T08:02:01;12;;;3;;
75342;SDS011;63936;51.006;13.764;2023-09-07T08:04:01;9;;;3;;
75342;SDS011;63936;51.006;13.764;2023-09-07T08:06:01;8;;;3;;
75342;SDS011;63936;51.006;13.764;2023-09-07T08:08:01;8;;;3;;
75342;SDS011;63936;51.006;13.764;2023-09-07T08:10:02;10;;;4;;
75342;SDS011;63936;51.006;13.764;2023-09-07T08:12:02;10;;;4;;
75342;SDS011;63936;51.006;13.764;2023-09-07T08:14:01;8;;;3;;
75342;SDS011;63936;51.006;13.764;2023-09-07T08:16:01;7;;;3;;
75342;SDS011;63936;51.006;13.764;2023-09-07T08:18:01;10;;;3;;
75342;SDS011;63936;51.006;13.764;2023-09-07T08:20:02;9;;;3;;
75342;SDS011;63936;51.006;13.764;2023-09-07T08:22:02;10;;;4;;
75342;SDS011;63936;51.006;13.764;2023-09-07T08:24:01;13;;;4;;
75342;SDS011;63936;51.006;13.764;2023-09-07T08:26:02;12;;;3;;
75342;SDS011;63936;51.006;13.764;2023-09-07T08:28:02;9;;;3;;
75342;SDS011;63936;51.006;13.764;2023-09-07T08:30:02;7;;;3;;
75342;SDS011;63936;51.006;13.764;2023-09-07T08:32:01;7;;;3;;
75342;SDS011;63936;51.006;13.764;2023-09-07T08:34:01;8;;;3;;
75342;SDS011;63936;51.006;13.764;2023-09-07T08:36:01;7;;;3;;
75342;SDS011;63936;51.006;13.764;2023-09-07T08:38:01;6;;;3;;
75342;SDS011;63936;51.006;13.764;2023-09-07T08:40:02;7;;;3;;
75342;SDS011;63936;51.006;13.764;2023-09-07T08:42:01;8;;;3;;
75342;SDS011;63936;51.006;13.764;2023-09-07T08:44:01;8;;;3;;
75342;SDS011;63936;51.006;13.764;2023-09-07T08:46:04;9;;;4;;
75342;SDS011;63936;51.006;13.764;2023-09-07T08:48:01;8;;;3;;
75342;SDS011;63936;51.006;13.764;2023-09-07T08:50:02;6;;;3;;
75342;SDS011;63936;51.006;13.764;2023-09-07T08:52:02;9;;;3;;
75342;SDS011;63936;51.006;13.764;2023-09-07T08:54:01;7;;;3;;
75342;SDS011;63936;51.006;13.764;2023-09-07T08:56:01;7;;;3;;
75342;SDS011;63936;51.006;13.764;2023-09-07T08:58:01;6;;;3;;
75342;SDS011;63936;51.006;13.764;2023-09-07T09:00:02;7;;;3;;
75342;SDS011;63936;51.006;13.764;2023-09-07T09:02:01;7;;;3;;
75342;SDS011;63936;51.006;13.764;2023-09-07T09:04:01;7;;;3;;
75342;SDS011;63936;51.006;13.764;2023-09-07T09:06:02;6;;;3;;
75342;SDS011;63936;51.006;13.764;2023-09-07T09:08:02;6;;;3;;
75342;SDS011;63936;51.006;13.764;2023-09-07T09:10:03;9;;;3;;
75342;SDS011;63936;51.006;13.764;2023-09-07T09:12:08;9;;;3;;
75342;SDS011;63936;51.006;13.764;2023-09-07T09:14:04;7;;;3;;
75342;SDS011;63936;51.006;13.764;2023-09-07T09:16:01;5;;;3;;
75342;SDS011;63936;51.006;13.764;2023-09-07T09:18:09;5;;;3;;
75342;SDS011;63936;51.006;13.764;2023-09-07T09:20:02;7;;;2;;
75342;SDS011;63936;51.006;13.764;2023-09-07T09:22:02;7;;;3;;
75342;SDS011;63936;51.006;13.764;2023-09-07T09:24:02;8;;;3;;
75342;SDS011;63936;51.006;13.764;2023-09-07T09:26:01;7;;;3;;
75342;SDS011;63936;51.006;13.764;2023-09-07T09:28:01;7;;;3;;
75342;SDS011;63936;51.006;13.764;2023-09-07T09:30:02;7;;;3;;
75342;SDS011;63936;51.006;13.764;2023-09-07T09:32:02;7;;;3;;
75342;SDS011;63936;51.006;13.764;2023-09-07T09:34:01;9;;;3;;
75342;SDS011;63936;51.006;13.764;2023-09-07T09:36:01;6;;;3;;
75342;SDS011;63936;51.006;13.764;2023-09-07T09:38:01;6;;;3;;
75342;SDS011;63936;51.006;13.764;2023-09-07T09:40:02;6;;;3;;
75342;SDS011;63936;51.006;13.764;2023-09-07T09:42:01;7;;;3;;
75342;SDS011;63936;51.006;13.764;2023-09-07T09:44:01;6;;;3;;
75342;SDS011;63936;51.006;13.764;2023-09-07T09:46:01;6;;;3;;
75342;SDS011;63936;51.006;13.764;2023-09-07T09:48:01;6;;;3;;
75342;SDS011;63936;51.006;13.764;2023-09-07T09:50:02;7;;;3;;
75342;SDS011;63936;51.006;13.764;2023-09-07T09:52:01;8;;;3;;
75342;SDS011;63936;51.006;13.764;2023-09-07T09:54:01;8;;;3;;
75342;SDS011;63936;51.006;13.764;2023-09-07T09:56:01;8;;;3;;
75342;SDS011;63936;51.006;13.764;2023-09-07T09:58:01;7;;;3;;
75342;SDS011;63936;51.006;13.764;2023-09-07T10:00:03;7;;;3;;
75342;SDS011;63936;51.006;13.764;2023-09-07T10:02:01;7;;;3;;
75342;SDS011;63936;51.006;13.764;2023-09-07T10:04:01;6;;;3;;
75342;SDS011;63936;51.006;13.764;2023-09-07T10:06:08;6;;;3;;
75342;SDS011;63936;51.006;13.764;2023-09-07T10:08:02;7;;;2;;
75342;SDS011;63936;51.006;13.764;2023-09-07T10:10:02;6;;;2;;
75342;SDS011;63936;51.006;13.764;2023-09-07T10:12:01;6;;;3;;
75342;SDS011;63936;51.006;13.764;2023-09-07T10:14:01;6;;;3;;
75342;SDS011;63936;51.006;13.764;2023-09-07T10:16:01;7;;;3;;
75342;SDS011;63936;51.006;13.764;2023-09-07T10:18:03;6;;;2;;
75342;SDS011;63936;51.006;13.764;2023-09-07T10:20:03;6;;;2;;
75342;SDS011;63936;51.006;13.764;2023-09-07T10:22:01;6;;;3;;
75342;SDS011;63936;51.006;13.764;2023-09-07T10:24:01;6;;;3;;
75342;SDS011;63936;51.006;13.764;2023-09-07T10:26:02;5;;;3;;
75342;SDS011;63936;51.006;13.764;2023-09-07T10:28:02;7;;;2;;
75342;SDS011;63936;51.006;13.764;2023-09-07T10:30:02;6;;;3;;
75342;SDS011;63936;51.006;13.764;2023-09-07T10:32:04;7;;;2;;
75342;SDS011;63936;51.006;13.764;2023-09-07T10:34:08;6;;;2;;
75342;SDS011;63936;51.006;13.764;2023-09-07T10:36:01;6;;;2;;
75342;SDS011;63936;51.006;13.764;2023-09-07T10:38:01;6;;;3;;
75342;SDS011;63936;51.006;13.764;2023-09-07T10:40:02;6;;;3;;
75342;SDS011;63936;51.006;13.764;2023-09-07T10:42:01;6;;;3;;
75342;SDS011;63936;51.006;13.764;2023-09-07T10:44:02;6;;;3;;
75342;SDS011;63936;51.006;13.764;2023-09-07T10:46:01;6;;;2;;
75342;SDS011;63936;51.006;13.764;2023-09-07T10:48:01;6;;;3;;
75342;SDS011;63936;51.006;13.764;2023-09-07T10:50:01;6;;;3;;
75342;SDS011;63936;51.006;13.764;2023-09-07T10:52:01;6;;;3;;
75342;SDS011;63936;51.006;13.764;2023-09-07T10:54:01;6;;;3;;
75342;SDS011;63936;51.006;13.764;2023-09-07T10:56:02;6;;;3;;
75342;SDS011;63936;51.006;13.764;2023-09-07T10:58:01;6;;;2;;
75342;SDS011;63936;51.006;13.764;2023-09-07T11:00:02;6;;;2;;
75342;SDS011;63936;51.006;13.764;2023-09-07T11:02:03;6;;;2;;
75342;SDS011;63936;51.006;13.764;2023-09-07T11:04:01;6;;;3;;
75342;SDS011;63936;51.006;13.764;2023-09-07T11:06:03;6;;;3;;
75342;SDS011;63936;51.006;13.764;2023-09-07T11:08:02;7;;;3;;
75342;SDS011;63936;51.006;13.764;2023-09-07T11:10:01;7;;;3;;
75342;SDS011;63936;51.006;13.764;2023-09-07T11:12:04;7;;;3;;
75342;SDS011;63936;51.006;13.764;2023-09-07T11:14:01;7;;;3;;
75342;SDS011;63936;51.006;13.764;2023-09-07T11:16:01;7;;;3;;
75342;SDS011;63936;51.006;13.764;2023-09-07T11:18:04;6;;;3;;
75342;SDS011;63936;51.006;13.764;2023-09-07T11:20:03;7;;;3;;
75342;SDS011;63936;51.006;13.764;2023-09-07T11:22:02;7;;;3;;
75342;SDS011;63936;51.006;13.764;2023-09-07T11:24:02;7;;;3;;
75342;SDS011;63936;51.006;13.764;2023-09-07T11:26:03;7;;;3;;
75342;SDS011;63936;51.006;13.764;2023-09-07T11:28:01;6;;;3;;
75342;SDS011;63936;51.006;13.764;2023-09-07T11:30:02;8;;;3;;
75342;SDS011;63936;51.006;13.764;2023-09-07T11:32:08;8;;;3;;
75342;SDS011;63936;51.006;13.764;2023-09-07T11:34:01;7;;;3;;
75342;SDS011;63936;51.006;13.764;2023-09-07T11:36:02;7;;;3;;
75342;SDS011;63936;51.006;13.764;2023-09-07T11:38:02;6;;;3;;
75342;SDS011;63936;51.006;13.764;2023-09-07T11:40:02;7;;;3;;
75342;SDS011;63936;51.006;13.764;2023-09-07T11:42:01;7;;;3;;
75342;SDS011;63936;51.006;13.764;2023-09-07T11:44:01;6;;;3;;
75342;SDS011;63936;51.006;13.764;2023-09-07T11:46:01;8;;;3;;
75342;SDS011;63936;51.006;13.764;2023-09-07T11:48:01;7;;;2;;
75342;SDS011;63936;51.006;13.764;2023-09-07T11:50:02;7;;;3;;
75342;SDS011;63936;51.006;13.764;2023-09-07T11:52:02;8;;;3;;
75342;SDS011;63936;51.006;13.764;2023-09-07T11:54:02;7;;;3;;
75342;SDS011;63936;51.006;13.764;2023-09-07T11:56:02;6;;;3;;
75342;SDS011;63936;51.006;13.764;2023-09-07T11:58:02;9;;;3;;
75342;SDS011;63936;51.006;13.764;2023-09-07T12:00:02;8;;;3;;
75342;SDS011;63936;51.006;13.764;2023-09-07T12:02:01;5;;;3;;
75342;SDS011;63936;51.006;13.764;2023-09-07T12:04:01;6;;;3;;
75342;SDS011;63936;51.006;13.764;2023-09-07T12:06:01;9;;;3;;
75342;SDS011;63936;51.006;13.764;2023-09-07T12:08:01;7;;;2;;
75342;SDS011;63936;51.006;13.764;2023-09-07T12:10:02;5;;;2;;
75342;SDS011;63936;51.006;13.764;2023-09-07T12:12:01;5;;;3;;
75342;SDS011;63936;51.006;13.764;2023-09-07T12:14:01;5;;;2;;
75342;SDS011;63936;51.006;13.764;2023-09-07T12:16:01;6;;;2;;
75342;SDS011;63936;51.006;13.764;2023-09-07T12:18:01;7;;;3;;
75342;SDS011;63936;51.006;13.764;2023-09-07T12:20:01;7;;;3;;
75342;SDS011;63936;51.006;13.764;2023-09-07T12:22:01;7;;;3;;
75342;SDS011;63936;51.006;13.764;2023-09-07T12:24:01;7;;;3;;
75342;SDS011;63936;51.006;13.764;2023-09-07T12:26:01;7;;;3;;
75342;SDS011;63936;51.006;13.764;2023-09-07T12:28:01;7;;;3;;
75342;SDS011;63936;51.006;13.764;2023-09-07T12:30:02;6;;;3;;
75342;SDS011;63936;51.006;13.764;2023-09-07T12:32:02;7;;;3;;
75342;SDS011;63936;51.006;13.764;2023-09-07T12:34:02;6;;;3;;
75342;SDS011;63936;51.006;13.764;2023-09-07T12:36:01;7;;;3;;
75342;SDS011;63936;51.006;13.764;2023-09-07T12:38:01;6;;;3;;
75342;SDS011;63936;51.006;13.764;2023-09-07T12:40:02;6;;;3;;
75342;SDS011;63936;51.006;13.764;2023-09-07T12:42:01;6;;;3;;
75342;SDS011;63936;51.006;13.764;2023-09-07T12:44:01;7;;;3;;
75342;SDS011;63936;51.006;13.764;2023-09-07T12:46:01;7;;;3;;
75342;SDS011;63936;51.006;13.764;2023-09-07T12:48:02;6;;;2;;
75342;SDS011;63936;51.006;13.764;2023-09-07T12:50:02;6;;;2;;
75342;SDS011;63936;51.006;13.764;2023-09-07T12:52:02;8;;;3;;
75342;SDS011;63936;51.006;13.764;2023-09-07T12:54:02;7;;;3;;
75342;SDS011;63936;51.006;13.764;2023-09-07T12:56:01;6;;;3;;
75342;SDS011;63936;51.006;13.764;2023-09-07T12:58:01;6;;;2;;